sensor_id;sensor_type;location;lat;lon;timestamp;P1;durP1;ratioP1;P2;durP2;ratioP2
6432;SDS011;3249;42.690;23.260;2023-06-22T00:01:35;21.00;;;16.40;;
6432;SDS011;3249;42.690;23.260;2023-06-22T00:04:04;19.33;;;17.30;;
6432;SDS011;3249;42.690;23.260;2023-06-22T00:06:33;18.50;;;16.80;;
6432;SDS011;3249;42.690;23.260;2023-06-22T00:09:01;19.50;;;15.67;;
6432;SDS011;3249;42.690;23.260;2023-06-22T00:11:32;26.47;;;16.90;;
6432;SDS011;3249;42.690;23.260;2023-06-22T00:14:02;16.87;;;15.17;;
6432;SDS011;3249;42.690;23.260;2023-06-22T00:16:31;19.33;;;16.60;;
6432;SDS011;3249;42.690;23.260;2023-06-22T00:19:03;18.67;;;16.40;;
6432;SDS011;3249;42.690;23.260;2023-06-22T00:21:32;18.57;;;16.57;;
6432;SDS011;3249;42.690;23.260;2023-06-22T00:24:03;20.57;;;16.90;;
6432;SDS011;3249;42.690;23.260;2023-06-22T00:26:33;18.90;;;16.90;;
6432;SDS011;3249;42.690;23.260;2023-06-22T00:29:02;19.90;;;18.03;;
6432;SDS011;3249;42.690;23.260;2023-06-22T00:31:31;22.47;;;17.83;;
6432;SDS011;3249;42.690;23.260;2023-06-22T00:34:03;22.47;;;17.67;;
6432;SDS011;3249;42.690;23.260;2023-06-22T00:36:34;18.70;;;16.57;;
6432;SDS011;3249;42.690;23.260;2023-06-22T00:39:06;18.63;;;16.83;;
6432;SDS011;3249;42.690;23.260;2023-06-22T00:41:36;19.70;;;17.37;;
6432;SDS011;3249;42.690;23.260;2023-06-22T00:44:05;19.07;;;17.00;;
6432;SDS011;3249;42.690;23.260;2023-06-22T00:46:36;19.90;;;16.50;;
6432;SDS011;3249;42.690;23.260;2023-06-22T00:49:05;18.77;;;16.80;;
6432;SDS011;3249;42.690;23.260;2023-06-22T00:51:35;19.17;;;17.13;;
6432;SDS011;3249;42.690;23.260;2023-06-22T00:54:05;22.00;;;17.40;;
6432;SDS011;3249;42.690;23.260;2023-06-22T00:56:34;21.93;;;17.47;;
6432;SDS011;3249;42.690;23.260;2023-06-22T00:59:03;20.17;;;16.90;;
6432;SDS011;3249;42.690;23.260;2023-06-22T01:01:37;19.43;;;17.37;;
6432;SDS011;3249;42.690;23.260;2023-06-22T01:04:06;22.90;;;20.53;;
6432;SDS011;3249;42.690;23.260;2023-06-22T01:06:39;24.27;;;20.73;;
6432;SDS011;3249;42.690;23.260;2023-06-22T01:09:15;19.50;;;17.67;;
6432;SDS011;3249;42.690;23.260;2023-06-22T01:11:52;20.57;;;18.57;;
6432;SDS011;3249;42.690;23.260;2023-06-22T01:14:27;23.87;;;18.53;;
6432;SDS011;3249;42.690;23.260;2023-06-22T01:17:07;22.10;;;18.20;;
6432;SDS011;3249;42.690;23.260;2023-06-22T01:19:39;20.50;;;18.30;;
6432;SDS011;3249;42.690;23.260;2023-06-22T01:22:15;19.97;;;17.90;;
6432;SDS011;3249;42.690;23.260;2023-06-22T01:24:49;24.60;;;18.23;;
6432;SDS011;3249;42.690;23.260;2023-06-22T01:27:32;21.07;;;18.77;;
6432;SDS011;3249;42.690;23.260;2023-06-22T01:30:15;24.87;;;19.07;;
6432;SDS011;3249;42.690;23.260;2023-06-22T01:32:46;21.03;;;18.70;;
6432;SDS011;3249;42.690;23.260;2023-06-22T01:35:16;26.57;;;19.37;;
6432;SDS011;3249;42.690;23.260;2023-06-22T01:37:48;21.03;;;19.03;;
6432;SDS011;3249;42.690;23.260;2023-06-22T01:40:18;23.63;;;18.87;;
6432;SDS011;3249;42.690;23.260;2023-06-22T01:42:51;21.50;;;18.13;;
6432;SDS011;3249;42.690;23.260;2023-06-22T01:45:22;22.03;;;19.70;;
6432;SDS011;3249;42.690;23.260;2023-06-22T01:47:53;21.43;;;18.97;;
6432;SDS011;3249;42.690;23.260;2023-06-22T01:50:23;21.20;;;18.90;;
6432;SDS011;3249;42.690;23.260;2023-06-22T01:52:52;20.37;;;18.20;;
6432;SDS011;3249;42.690;23.260;2023-06-22T01:55:21;24.13;;;18.77;;
6432;SDS011;3249;42.690;23.260;2023-06-22T01:57:50;23.83;;;18.80;;
6432;SDS011;3249;42.690;23.260;2023-06-22T02:00:22;20.03;;;17.83;;
6432;SDS011;3249;42.690;23.260;2023-06-22T02:02:56;36.03;;;19.20;;
6432;SDS011;3249;42.690;23.260;2023-06-22T02:05:31;29.23;;;18.17;;
6432;SDS011;3249;42.690;23.260;2023-06-22T02:08:09;25.70;;;18.27;;
6432;SDS011;3249;42.690;23.260;2023-06-22T02:10:42;21.30;;;19.10;;
6432;SDS011;3249;42.690;23.260;2023-06-22T02:13:14;19.93;;;18.00;;
6432;SDS011;3249;42.690;23.260;2023-06-22T02:15:46;21.10;;;18.97;;
6432;SDS011;3249;42.690;23.260;2023-06-22T02:18:16;21.00;;;18.70;;
6432;SDS011;3249;42.690;23.260;2023-06-22T02:20:46;19.97;;;17.67;;
6432;SDS011;3249;42.690;23.260;2023-06-22T02:23:15;20.60;;;17.17;;
6432;SDS011;3249;42.690;23.260;2023-06-22T02:25:45;21.77;;;16.90;;
6432;SDS011;3249;42.690;23.260;2023-06-22T02:28:14;20.57;;;17.03;;
6432;SDS011;3249;42.690;23.260;2023-06-22T02:30:47;18.70;;;16.60;;
6432;SDS011;3249;42.690;23.260;2023-06-22T02:33:18;22.60;;;17.63;;
6432;SDS011;3249;42.690;23.260;2023-06-22T02:35:48;18.87;;;16.50;;
6432;SDS011;3249;42.690;23.260;2023-06-22T02:38:17;18.03;;;15.93;;
6432;SDS011;3249;42.690;23.260;2023-06-22T02:40:46;20.50;;;15.43;;
6432;SDS011;3249;42.690;23.260;2023-06-22T02:43:16;25.93;;;16.53;;
6432;SDS011;3249;42.690;23.260;2023-06-22T02:45:47;18.70;;;15.50;;
6432;SDS011;3249;42.690;23.260;2023-06-22T02:48:17;18.97;;;15.40;;
6432;SDS011;3249;42.690;23.260;2023-06-22T02:50:46;18.03;;;15.83;;
6432;SDS011;3249;42.690;23.260;2023-06-22T02:53:16;20.90;;;16.07;;
6432;SDS011;3249;42.690;23.260;2023-06-22T02:55:46;23.00;;;16.63;;
6432;SDS011;3249;42.690;23.260;2023-06-22T02:58:15;17.87;;;15.97;;
6432;SDS011;3249;42.690;23.260;2023-06-22T03:00:48;16.83;;;14.73;;
6432;SDS011;3249;42.690;23.260;2023-06-22T03:03:19;19.90;;;15.23;;
6432;SDS011;3249;42.690;23.260;2023-06-22T03:05:47;18.67;;;15.40;;
6432;SDS011;3249;42.690;23.260;2023-06-22T03:08:19;17.33;;;14.63;;
6432;SDS011;3249;42.690;23.260;2023-06-22T03:10:49;16.90;;;15.20;;
6432;SDS011;3249;42.690;23.260;2023-06-22T03:13:19;17.77;;;15.97;;
6432;SDS011;3249;42.690;23.260;2023-06-22T03:15:50;18.73;;;15.37;;
6432;SDS011;3249;42.690;23.260;2023-06-22T03:18:19;17.43;;;15.67;;
6432;SDS011;3249;42.690;23.260;2023-06-22T03:20:48;28.87;;;14.70;;
6432;SDS011;3249;42.690;23.260;2023-06-22T03:23:18;14.73;;;13.03;;
6432;SDS011;3249;42.690;23.260;2023-06-22T03:25:47;14.87;;;13.27;;
6432;SDS011;3249;42.690;23.260;2023-06-22T03:28:16;16.57;;;13.60;;
6432;SDS011;3249;42.690;23.260;2023-06-22T03:30:45;16.03;;;12.83;;
6432;SDS011;3249;42.690;23.260;2023-06-22T03:33:16;14.67;;;13.20;;
6432;SDS011;3249;42.690;23.260;2023-06-22T03:35:45;15.33;;;13.30;;
6432;SDS011;3249;42.690;23.260;2023-06-22T03:38:15;14.27;;;12.13;;
6432;SDS011;3249;42.690;23.260;2023-06-22T03:40:44;17.23;;;12.83;;
6432;SDS011;3249;42.690;23.260;2023-06-22T03:43:13;15.63;;;12.97;;
6432;SDS011;3249;42.690;23.260;2023-06-22T03:45:42;14.00;;;12.60;;
6432;SDS011;3249;42.690;23.260;2023-06-22T03:48:12;15.03;;;11.63;;
6432;SDS011;3249;42.690;23.260;2023-06-22T03:50:44;16.60;;;13.57;;
6432;SDS011;3249;42.690;23.260;2023-06-22T03:53:14;17.43;;;12.43;;
6432;SDS011;3249;42.690;23.260;2023-06-22T03:55:47;15.53;;;12.63;;
6432;SDS011;3249;42.690;23.260;2023-06-22T03:58:17;17.13;;;12.30;;
6432;SDS011;3249;42.690;23.260;2023-06-22T04:00:47;17.20;;;12.23;;
6432;SDS011;3249;42.690;23.260;2023-06-22T04:03:17;19.40;;;12.50;;
6432;SDS011;3249;42.690;23.260;2023-06-22T04:05:49;13.13;;;11.83;;
6432;SDS011;3249;42.690;23.260;2023-06-22T04:08:18;13.13;;;11.90;;
6432;SDS011;3249;42.690;23.260;2023-06-22T04:10:47;18.17;;;12.60;;
6432;SDS011;3249;42.690;23.260;2023-06-22T04:13:16;26.07;;;12.53;;
6432;SDS011;3249;42.690;23.260;2023-06-22T04:15:45;24.33;;;14.13;;
6432;SDS011;3249;42.690;23.260;2023-06-22T04:18:14;13.90;;;12.43;;
6432;SDS011;3249;42.690;23.260;2023-06-22T04:20:44;14.37;;;11.60;;
6432;SDS011;3249;42.690;23.260;2023-06-22T04:23:15;12.93;;;11.70;;
6432;SDS011;3249;42.690;23.260;2023-06-22T04:25:44;16.07;;;12.40;;
6432;SDS011;3249;42.690;23.260;2023-06-22T04:28:13;16.63;;;14.60;;
6432;SDS011;3249;42.690;23.260;2023-06-22T04:30:42;22.87;;;14.37;;
6432;SDS011;3249;42.690;23.260;2023-06-22T04:33:15;22.03;;;18.23;;
6432;SDS011;3249;42.690;23.260;2023-06-22T04:35:44;21.40;;;19.00;;
6432;SDS011;3249;42.690;23.260;2023-06-22T04:38:16;20.17;;;16.73;;
6432;SDS011;3249;42.690;23.260;2023-06-22T04:40:47;17.27;;;15.03;;
6432;SDS011;3249;42.690;23.260;2023-06-22T04:43:16;21.57;;;17.70;;
6432;SDS011;3249;42.690;23.260;2023-06-22T04:45:45;27.07;;;20.10;;
6432;SDS011;3249;42.690;23.260;2023-06-22T04:48:17;20.47;;;18.20;;
6432;SDS011;3249;42.690;23.260;2023-06-22T04:50:46;18.70;;;16.13;;
6432;SDS011;3249;42.690;23.260;2023-06-22T04:53:18;16.47;;;14.97;;
6432;SDS011;3249;42.690;23.260;2023-06-22T04:55:47;18.17;;;13.70;;
6432;SDS011;3249;42.690;23.260;2023-06-22T04:58:18;16.50;;;14.60;;
6432;SDS011;3249;42.690;23.260;2023-06-22T05:00:47;20.43;;;12.70;;
6432;SDS011;3249;42.690;23.260;2023-06-22T05:03:17;13.97;;;11.40;;
6432;SDS011;3249;42.690;23.260;2023-06-22T05:05:46;12.07;;;11.00;;
6432;SDS011;3249;42.690;23.260;2023-06-22T05:08:18;12.83;;;11.63;;
6432;SDS011;3249;42.690;23.260;2023-06-22T05:10:52;15.73;;;12.50;;
6432;SDS011;3249;42.690;23.260;2023-06-22T05:13:21;14.90;;;13.57;;
6432;SDS011;3249;42.690;23.260;2023-06-22T05:15:51;15.63;;;14.03;;
6432;SDS011;3249;42.690;23.260;2023-06-22T05:18:27;15.27;;;13.67;;
6432;SDS011;3249;42.690;23.260;2023-06-22T05:20:57;14.83;;;13.47;;
6432;SDS011;3249;42.690;23.260;2023-06-22T05:23:29;15.27;;;13.97;;
6432;SDS011;3249;42.690;23.260;2023-06-22T05:25:58;14.20;;;12.80;;
6432;SDS011;3249;42.690;23.260;2023-06-22T05:28:27;14.90;;;13.37;;
6432;SDS011;3249;42.690;23.260;2023-06-22T05:30:56;16.73;;;14.20;;
6432;SDS011;3249;42.690;23.260;2023-06-22T05:33:25;18.17;;;14.57;;
6432;SDS011;3249;42.690;23.260;2023-06-22T05:35:55;15.97;;;14.47;;
6432;SDS011;3249;42.690;23.260;2023-06-22T05:38:23;17.03;;;15.27;;
6432;SDS011;3249;42.690;23.260;2023-06-22T05:40:55;16.13;;;14.00;;
6432;SDS011;3249;42.690;23.260;2023-06-22T05:43:24;15.80;;;14.20;;
6432;SDS011;3249;42.690;23.260;2023-06-22T05:45:53;15.73;;;14.13;;
6432;SDS011;3249;42.690;23.260;2023-06-22T05:48:22;15.33;;;13.83;;
6432;SDS011;3249;42.690;23.260;2023-06-22T05:50:52;16.10;;;14.03;;
6432;SDS011;3249;42.690;23.260;2023-06-22T05:53:21;14.67;;;13.30;;
6432;SDS011;3249;42.690;23.260;2023-06-22T05:55:50;15.83;;;14.17;;
6432;SDS011;3249;42.690;23.260;2023-06-22T05:58:21;16.37;;;14.67;;
6432;SDS011;3249;42.690;23.260;2023-06-22T06:00:50;19.30;;;14.80;;
6432;SDS011;3249;42.690;23.260;2023-06-22T06:03:19;17.60;;;15.47;;
6432;SDS011;3249;42.690;23.260;2023-06-22T06:05:48;16.10;;;14.60;;
6432;SDS011;3249;42.690;23.260;2023-06-22T06:08:17;22.57;;;15.00;;
6432;SDS011;3249;42.690;23.260;2023-06-22T06:10:47;18.40;;;14.37;;
6432;SDS011;3249;42.690;23.260;2023-06-22T06:13:21;22.00;;;14.93;;
6432;SDS011;3249;42.690;23.260;2023-06-22T06:15:50;18.43;;;14.00;;
6432;SDS011;3249;42.690;23.260;2023-06-22T06:18:20;16.03;;;14.43;;
6432;SDS011;3249;42.690;23.260;2023-06-22T06:23:33;20.00;;;18.00;;
6432;SDS011;3249;42.690;23.260;2023-06-22T06:26:02;19.67;;;14.03;;
6432;SDS011;3249;42.690;23.260;2023-06-22T06:28:35;22.30;;;16.00;;
6432;SDS011;3249;42.690;23.260;2023-06-22T06:31:08;16.07;;;14.03;;
6432;SDS011;3249;42.690;23.260;2023-06-22T06:33:37;16.30;;;13.33;;
6432;SDS011;3249;42.690;23.260;2023-06-22T06:36:06;16.37;;;13.93;;
6432;SDS011;3249;42.690;23.260;2023-06-22T06:38:35;17.47;;;13.77;;
6432;SDS011;3249;42.690;23.260;2023-06-22T06:41:05;15.73;;;14.20;;
6432;SDS011;3249;42.690;23.260;2023-06-22T06:43:36;14.93;;;13.37;;
6432;SDS011;3249;42.690;23.260;2023-06-22T06:46:05;20.10;;;16.27;;
6432;SDS011;3249;42.690;23.260;2023-06-22T06:48:34;17.87;;;14.60;;
6432;SDS011;3249;42.690;23.260;2023-06-22T06:51:03;15.80;;;14.17;;
6432;SDS011;3249;42.690;23.260;2023-06-22T06:53:35;16.20;;;14.43;;
6432;SDS011;3249;42.690;23.260;2023-06-22T06:56:04;15.23;;;13.33;;
6432;SDS011;3249;42.690;23.260;2023-06-22T06:58:38;14.87;;;13.40;;
6432;SDS011;3249;42.690;23.260;2023-06-22T07:01:10;15.27;;;13.70;;
6432;SDS011;3249;42.690;23.260;2023-06-22T07:03:40;16.27;;;13.60;;
6432;SDS011;3249;42.690;23.260;2023-06-22T07:06:09;14.27;;;12.83;;
6432;SDS011;3249;42.690;23.260;2023-06-22T07:08:38;14.37;;;12.87;;
6432;SDS011;3249;42.690;23.260;2023-06-22T07:11:07;13.73;;;12.30;;
6432;SDS011;3249;42.690;23.260;2023-06-22T07:13:38;13.73;;;12.47;;
6432;SDS011;3249;42.690;23.260;2023-06-22T07:16:07;14.83;;;12.57;;
6432;SDS011;3249;42.690;23.260;2023-06-22T07:18:36;14.03;;;11.43;;
6432;SDS011;3249;42.690;23.260;2023-06-22T07:21:07;12.57;;;11.33;;
6432;SDS011;3249;42.690;23.260;2023-06-22T07:23:36;13.10;;;11.73;;
6432;SDS011;3249;42.690;23.260;2023-06-22T07:26:05;13.07;;;11.97;;
6432;SDS011;3249;42.690;23.260;2023-06-22T07:28:34;12.50;;;11.40;;
6432;SDS011;3249;42.690;23.260;2023-06-22T07:31:10;13.63;;;12.23;;
6432;SDS011;3249;42.690;23.260;2023-06-22T07:33:39;19.60;;;12.50;;
6432;SDS011;3249;42.690;23.260;2023-06-22T07:36:08;16.20;;;13.23;;
6432;SDS011;3249;42.690;23.260;2023-06-22T07:38:37;15.60;;;13.10;;
6432;SDS011;3249;42.690;23.260;2023-06-22T07:41:07;15.43;;;13.40;;
6432;SDS011;3249;42.690;23.260;2023-06-22T07:43:36;14.60;;;13.10;;
6432;SDS011;3249;42.690;23.260;2023-06-22T07:46:05;14.37;;;12.37;;
6432;SDS011;3249;42.690;23.260;2023-06-22T07:48:37;13.90;;;12.40;;
6432;SDS011;3249;42.690;23.260;2023-06-22T07:51:07;13.43;;;12.33;;
6432;SDS011;3249;42.690;23.260;2023-06-22T07:53:38;13.63;;;12.50;;
6432;SDS011;3249;42.690;23.260;2023-06-22T07:56:08;14.97;;;13.43;;
6432;SDS011;3249;42.690;23.260;2023-06-22T07:58:39;14.80;;;13.20;;
6432;SDS011;3249;42.690;23.260;2023-06-22T08:01:11;14.77;;;13.33;;
6432;SDS011;3249;42.690;23.260;2023-06-22T08:03:40;14.10;;;12.80;;
6432;SDS011;3249;42.690;23.260;2023-06-22T08:06:08;14.17;;;12.80;;
6432;SDS011;3249;42.690;23.260;2023-06-22T08:08:38;14.10;;;12.80;;
6432;SDS011;3249;42.690;23.260;2023-06-22T08:11:08;15.83;;;13.33;;
6432;SDS011;3249;42.690;23.260;2023-06-22T08:13:37;13.40;;;12.33;;
6432;SDS011;3249;42.690;23.260;2023-06-22T08:16:06;14.40;;;13.00;;
6432;SDS011;3249;42.690;23.260;2023-06-22T08:18:38;24.10;;;21.87;;
6432;SDS011;3249;42.690;23.260;2023-06-22T08:21:07;14.77;;;13.37;;
6432;SDS011;3249;42.690;23.260;2023-06-22T08:23:37;14.03;;;12.67;;
6432;SDS011;3249;42.690;23.260;2023-06-22T08:26:06;14.10;;;12.67;;
6432;SDS011;3249;42.690;23.260;2023-06-22T08:28:35;13.40;;;12.10;;
6432;SDS011;3249;42.690;23.260;2023-06-22T08:31:04;13.03;;;11.80;;
6432;SDS011;3249;42.690;23.260;2023-06-22T08:33:33;13.27;;;12.17;;
6432;SDS011;3249;42.690;23.260;2023-06-22T08:36:06;13.07;;;11.80;;
6432;SDS011;3249;42.690;23.260;2023-06-22T08:38:38;14.80;;;12.17;;
6432;SDS011;3249;42.690;23.260;2023-06-22T08:41:07;12.23;;;11.23;;
6432;SDS011;3249;42.690;23.260;2023-06-22T08:43:36;12.10;;;11.03;;
6432;SDS011;3249;42.690;23.260;2023-06-22T08:46:05;12.87;;;11.60;;
6432;SDS011;3249;42.690;23.260;2023-06-22T08:48:34;12.30;;;11.30;;
6432;SDS011;3249;42.690;23.260;2023-06-22T08:51:06;11.53;;;10.53;;
6432;SDS011;3249;42.690;23.260;2023-06-22T08:53:35;12.23;;;11.27;;
6432;SDS011;3249;42.690;23.260;2023-06-22T08:56:04;11.90;;;10.87;;
6432;SDS011;3249;42.690;23.260;2023-06-22T08:58:33;11.53;;;10.53;;
6432;SDS011;3249;42.690;23.260;2023-06-22T09:01:02;12.07;;;10.97;;
6432;SDS011;3249;42.690;23.260;2023-06-22T09:03:31;13.00;;;11.13;;
6432;SDS011;3249;42.690;23.260;2023-06-22T09:06:03;12.27;;;11.27;;
6432;SDS011;3249;42.690;23.260;2023-06-22T09:08:34;10.93;;;10.03;;
6432;SDS011;3249;42.690;23.260;2023-06-22T09:11:04;9.67;;;8.97;;
6432;SDS011;3249;42.690;23.260;2023-06-22T09:13:32;10.50;;;9.67;;
6432;SDS011;3249;42.690;23.260;2023-06-22T09:16:02;14.57;;;10.10;;
6432;SDS011;3249;42.690;23.260;2023-06-22T09:18:33;10.37;;;9.40;;
6432;SDS011;3249;42.690;23.260;2023-06-22T09:21:02;9.50;;;8.73;;
6432;SDS011;3249;42.690;23.260;2023-06-22T09:23:34;10.17;;;9.37;;
6432;SDS011;3249;42.690;23.260;2023-06-22T09:26:04;10.30;;;9.50;;
6432;SDS011;3249;42.690;23.260;2023-06-22T09:28:33;11.20;;;10.03;;
6432;SDS011;3249;42.690;23.260;2023-06-22T09:31:02;10.23;;;9.33;;
6432;SDS011;3249;42.690;23.260;2023-06-22T09:33:32;11.10;;;9.97;;
6432;SDS011;3249;42.690;23.260;2023-06-22T09:36:02;11.13;;;10.13;;
6432;SDS011;3249;42.690;23.260;2023-06-22T09:38:36;9.37;;;8.57;;
6432;SDS011;3249;42.690;23.260;2023-06-22T09:41:06;9.40;;;8.60;;
6432;SDS011;3249;42.690;23.260;2023-06-22T09:43:35;9.57;;;8.80;;
6432;SDS011;3249;42.690;23.260;2023-06-22T09:46:04;10.27;;;8.93;;
6432;SDS011;3249;42.690;23.260;2023-06-22T09:48:34;10.50;;;9.60;;
6432;SDS011;3249;42.690;23.260;2023-06-22T09:51:03;9.50;;;8.80;;
6432;SDS011;3249;42.690;23.260;2023-06-22T09:53:32;16.80;;;10.13;;
6432;SDS011;3249;42.690;23.260;2023-06-22T09:56:05;9.50;;;8.70;;
6432;SDS011;3249;42.690;23.260;2023-06-22T09:58:40;8.77;;;8.17;;
6432;SDS011;3249;42.690;23.260;2023-06-22T10:01:10;8.90;;;8.30;;
6432;SDS011;3249;42.690;23.260;2023-06-22T10:03:40;10.33;;;9.43;;
6432;SDS011;3249;42.690;23.260;2023-06-22T10:06:09;10.97;;;10.13;;
6432;SDS011;3249;42.690;23.260;2023-06-22T10:08:39;10.57;;;9.73;;
6432;SDS011;3249;42.690;23.260;2023-06-22T10:11:10;11.20;;;9.77;;
6432;SDS011;3249;42.690;23.260;2023-06-22T10:13:39;10.87;;;9.83;;
6432;SDS011;3249;42.690;23.260;2023-06-22T10:16:08;10.37;;;9.57;;
6432;SDS011;3249;42.690;23.260;2023-06-22T10:18:37;12.07;;;10.80;;
6432;SDS011;3249;42.690;23.260;2023-06-22T10:21:07;10.70;;;9.67;;
6432;SDS011;3249;42.690;23.260;2023-06-22T10:23:35;10.67;;;9.37;;
6432;SDS011;3249;42.690;23.260;2023-06-22T10:26:04;10.47;;;9.57;;
6432;SDS011;3249;42.690;23.260;2023-06-22T10:28:36;10.63;;;9.70;;
6432;SDS011;3249;42.690;23.260;2023-06-22T10:31:05;10.17;;;9.37;;
6432;SDS011;3249;42.690;23.260;2023-06-22T10:33:34;10.37;;;9.47;;
6432;SDS011;3249;42.690;23.260;2023-06-22T10:36:03;11.17;;;10.10;;
6432;SDS011;3249;42.690;23.260;2023-06-22T10:38:33;10.00;;;9.10;;
6432;SDS011;3249;42.690;23.260;2023-06-22T10:41:02;9.83;;;9.13;;
6432;SDS011;3249;42.690;23.260;2023-06-22T10:43:31;10.00;;;9.27;;
6432;SDS011;3249;42.690;23.260;2023-06-22T10:46:02;9.53;;;8.83;;
6432;SDS011;3249;42.690;23.260;2023-06-22T10:48:31;10.77;;;9.77;;
6432;SDS011;3249;42.690;23.260;2023-06-22T10:51:01;9.93;;;9.27;;
6432;SDS011;3249;42.690;23.260;2023-06-22T10:53:30;10.77;;;9.77;;
6432;SDS011;3249;42.690;23.260;2023-06-22T10:56:00;10.93;;;10.00;;
6432;SDS011;3249;42.690;23.260;2023-06-22T10:58:29;10.77;;;9.77;;
6432;SDS011;3249;42.690;23.260;2023-06-22T11:00:58;10.17;;;9.27;;
6432;SDS011;3249;42.690;23.260;2023-06-22T11:03:31;10.80;;;9.70;;
6432;SDS011;3249;42.690;23.260;2023-06-22T11:06:01;11.23;;;10.00;;
6432;SDS011;3249;42.690;23.260;2023-06-22T11:08:30;10.23;;;9.27;;
6432;SDS011;3249;42.690;23.260;2023-06-22T11:10:59;11.17;;;10.07;;
6432;SDS011;3249;42.690;23.260;2023-06-22T11:13:28;10.33;;;9.53;;
6432;SDS011;3249;42.690;23.260;2023-06-22T11:15:57;9.33;;;8.60;;
6432;SDS011;3249;42.690;23.260;2023-06-22T11:18:26;10.50;;;9.40;;
6432;SDS011;3249;42.690;23.260;2023-06-22T11:20:58;10.13;;;9.33;;
6432;SDS011;3249;42.690;23.260;2023-06-22T11:23:27;10.40;;;9.63;;
6432;SDS011;3249;42.690;23.260;2023-06-22T11:25:56;10.17;;;9.27;;
6432;SDS011;3249;42.690;23.260;2023-06-22T11:28:27;10.63;;;9.50;;
6432;SDS011;3249;42.690;23.260;2023-06-22T11:30:55;10.33;;;9.53;;
6432;SDS011;3249;42.690;23.260;2023-06-22T11:33:26;10.80;;;9.73;;
6432;SDS011;3249;42.690;23.260;2023-06-22T11:35:54;12.13;;;9.70;;
6432;SDS011;3249;42.690;23.260;2023-06-22T11:38:26;9.77;;;8.97;;
6432;SDS011;3249;42.690;23.260;2023-06-22T11:40:57;10.90;;;9.90;;
6432;SDS011;3249;42.690;23.260;2023-06-22T11:43:27;11.00;;;9.93;;
6432;SDS011;3249;42.690;23.260;2023-06-22T11:45:56;11.07;;;9.97;;
6432;SDS011;3249;42.690;23.260;2023-06-22T11:48:26;10.73;;;9.40;;
6432;SDS011;3249;42.690;23.260;2023-06-22T11:50:55;11.43;;;10.27;;
6432;SDS011;3249;42.690;23.260;2023-06-22T11:53:28;21.37;;;17.37;;
6432;SDS011;3249;42.690;23.260;2023-06-22T11:55:58;12.13;;;10.73;;
6432;SDS011;3249;42.690;23.260;2023-06-22T11:58:27;11.47;;;9.73;;
6432;SDS011;3249;42.690;23.260;2023-06-22T12:00:56;12.90;;;10.37;;
6432;SDS011;3249;42.690;23.260;2023-06-22T12:03:25;10.50;;;9.47;;
6432;SDS011;3249;42.690;23.260;2023-06-22T12:05:59;11.57;;;10.57;;
6432;SDS011;3249;42.690;23.260;2023-06-22T12:08:28;14.00;;;12.80;;
6432;SDS011;3249;42.690;23.260;2023-06-22T12:10:57;13.80;;;12.40;;
6432;SDS011;3249;42.690;23.260;2023-06-22T12:13:26;11.30;;;10.30;;
6432;SDS011;3249;42.690;23.260;2023-06-22T12:15:55;11.70;;;10.73;;
6432;SDS011;3249;42.690;23.260;2023-06-22T12:18:24;12.00;;;11.00;;
6432;SDS011;3249;42.690;23.260;2023-06-22T12:20:54;12.10;;;11.03;;
6432;SDS011;3249;42.690;23.260;2023-06-22T12:23:25;13.00;;;11.80;;
6432;SDS011;3249;42.690;23.260;2023-06-22T12:25:54;12.87;;;11.40;;
6432;SDS011;3249;42.690;23.260;2023-06-22T12:28:24;13.77;;;12.37;;
6432;SDS011;3249;42.690;23.260;2023-06-22T12:30:53;16.37;;;14.00;;
6432;SDS011;3249;42.690;23.260;2023-06-22T12:33:22;13.90;;;11.37;;
6432;SDS011;3249;42.690;23.260;2023-06-22T12:35:52;17.23;;;10.17;;
6432;SDS011;3249;42.690;23.260;2023-06-22T12:38:20;14.13;;;8.33;;
6432;SDS011;3249;42.690;23.260;2023-06-22T12:40:55;16.00;;;8.57;;
6432;SDS011;3249;42.690;23.260;2023-06-22T12:43:25;9.07;;;7.77;;
6432;SDS011;3249;42.690;23.260;2023-06-22T12:45:53;10.10;;;7.87;;
6432;SDS011;3249;42.690;23.260;2023-06-22T12:48:22;10.30;;;7.50;;
6432;SDS011;3249;42.690;23.260;2023-06-22T12:50:51;13.00;;;8.37;;
6432;SDS011;3249;42.690;23.260;2023-06-22T12:53:20;9.10;;;8.17;;
6432;SDS011;3249;42.690;23.260;2023-06-22T12:55:55;11.10;;;8.87;;
6432;SDS011;3249;42.690;23.260;2023-06-22T12:58:25;11.57;;;9.40;;
6432;SDS011;3249;42.690;23.260;2023-06-22T13:00:54;10.10;;;9.10;;
6432;SDS011;3249;42.690;23.260;2023-06-22T13:03:22;13.03;;;10.67;;
6432;SDS011;3249;42.690;23.260;2023-06-22T13:05:53;12.73;;;9.67;;
6432;SDS011;3249;42.690;23.260;2023-06-22T13:08:22;9.87;;;8.10;;
6432;SDS011;3249;42.690;23.260;2023-06-22T13:10:51;14.67;;;9.23;;
6432;SDS011;3249;42.690;23.260;2023-06-22T13:13:25;10.13;;;8.87;;
6432;SDS011;3249;42.690;23.260;2023-06-22T13:15:55;9.73;;;8.57;;
6432;SDS011;3249;42.690;23.260;2023-06-22T13:18:24;11.17;;;8.57;;
6432;SDS011;3249;42.690;23.260;2023-06-22T13:20:53;10.37;;;9.27;;
6432;SDS011;3249;42.690;23.260;2023-06-22T13:23:23;8.93;;;8.10;;
6432;SDS011;3249;42.690;23.260;2023-06-22T13:25:52;11.77;;;9.43;;
6432;SDS011;3249;42.690;23.260;2023-06-22T13:28:24;30.93;;;25.77;;
6432;SDS011;3249;42.690;23.260;2023-06-22T13:30:55;10.40;;;9.40;;
6432;SDS011;3249;42.690;23.260;2023-06-22T13:33:24;9.67;;;8.67;;
6432;SDS011;3249;42.690;23.260;2023-06-22T13:35:53;10.83;;;9.33;;
6432;SDS011;3249;42.690;23.260;2023-06-22T13:38:23;10.80;;;9.70;;
6432;SDS011;3249;42.690;23.260;2023-06-22T13:40:52;13.87;;;10.43;;
6432;SDS011;3249;42.690;23.260;2023-06-22T13:43:26;11.33;;;10.13;;
6432;SDS011;3249;42.690;23.260;2023-06-22T13:45:56;10.40;;;9.00;;
6432;SDS011;3249;42.690;23.260;2023-06-22T13:48:25;9.93;;;8.93;;
6432;SDS011;3249;42.690;23.260;2023-06-22T13:50:54;11.40;;;10.20;;
6432;SDS011;3249;42.690;23.260;2023-06-22T13:53:24;10.80;;;9.67;;
6432;SDS011;3249;42.690;23.260;2023-06-22T13:55:53;12.47;;;10.43;;
6432;SDS011;3249;42.690;23.260;2023-06-22T13:58:23;11.27;;;10.27;;
6432;SDS011;3249;42.690;23.260;2023-06-22T14:00:55;11.40;;;10.27;;
6432;SDS011;3249;42.690;23.260;2023-06-22T14:03:24;10.30;;;9.37;;
6432;SDS011;3249;42.690;23.260;2023-06-22T14:05:53;10.20;;;9.20;;
6432;SDS011;3249;42.690;23.260;2023-06-22T14:08:23;11.87;;;9.80;;
6432;SDS011;3249;42.690;23.260;2023-06-22T14:10:53;12.97;;;10.37;;
6432;SDS011;3249;42.690;23.260;2023-06-22T14:13:22;12.33;;;10.93;;
6432;SDS011;3249;42.690;23.260;2023-06-22T14:15:54;12.17;;;11.07;;
6432;SDS011;3249;42.690;23.260;2023-06-22T14:18:23;15.03;;;12.53;;
6432;SDS011;3249;42.690;23.260;2023-06-22T14:20:52;15.20;;;12.10;;
6432;SDS011;3249;42.690;23.260;2023-06-22T14:23:21;19.20;;;12.17;;
6432;SDS011;3249;42.690;23.260;2023-06-22T14:25:51;42.33;;;15.63;;
6432;SDS011;3249;42.690;23.260;2023-06-22T14:28:20;14.93;;;11.20;;
6432;SDS011;3249;42.690;23.260;2023-06-22T14:30:49;12.10;;;10.73;;
6432;SDS011;3249;42.690;23.260;2023-06-22T14:33:20;13.67;;;11.10;;
6432;SDS011;3249;42.690;23.260;2023-06-22T14:35:50;22.23;;;13.07;;
6432;SDS011;3249;42.690;23.260;2023-06-22T14:38:18;16.30;;;12.57;;
6432;SDS011;3249;42.690;23.260;2023-06-22T14:40:48;13.63;;;11.80;;
6432;SDS011;3249;42.690;23.260;2023-06-22T14:43:17;16.90;;;12.00;;
6432;SDS011;3249;42.690;23.260;2023-06-22T14:45:49;18.97;;;11.87;;
6432;SDS011;3249;42.690;23.260;2023-06-22T14:48:21;21.63;;;13.67;;
6432;SDS011;3249;42.690;23.260;2023-06-22T14:50:51;13.77;;;12.43;;
6432;SDS011;3249;42.690;23.260;2023-06-22T14:53:20;12.23;;;10.93;;
6432;SDS011;3249;42.690;23.260;2023-06-22T14:55:49;13.47;;;12.13;;
6432;SDS011;3249;42.690;23.260;2023-06-22T14:58:19;14.80;;;11.13;;